createdAt,value
2019-05-30T00:00:14.445Z,9.36
2019-05-30T00:02:26.525Z,9.27
2019-05-30T00:04:54.134Z,9.08
2019-05-30T00:07:21.627Z,9.11
2019-05-30T00:09:49.018Z,8.97
2019-05-30T00:12:16.407Z,9.41
2019-05-30T00:14:43.757Z,9.51
2019-05-30T00:17:11.381Z,9.58
2019-05-30T00:19:38.748Z,9.25
2019-05-30T00:22:06.127Z,9.44
2019-05-30T00:24:33.472Z,9.44
2019-05-30T00:27:00.839Z,9.31
2019-05-30T00:29:28.170Z,9.26
2019-05-30T00:31:55.589Z,9.43
2019-05-30T00:34:23.026Z,9.34
2019-05-30T00:36:50.385Z,9.11
2019-05-30T00:39:17.881Z,9.17
2019-05-30T00:41:45.230Z,9.07
2019-05-30T00:44:12.704Z,9.03
2019-05-30T00:46:40.098Z,8.99
2019-05-30T00:49:07.438Z,9.13
2019-05-30T00:51:34.801Z,9.16
2019-05-30T00:54:02.899Z,9.04
2019-05-30T00:56:30.319Z,8.94
2019-05-30T00:58:58.670Z,8.84
2019-05-30T01:01:26.100Z,8.77
2019-05-30T01:03:53.470Z,9.08
2019-05-30T01:06:21.638Z,9.14
2019-05-30T01:08:49.038Z,9.35
2019-05-30T01:11:16.357Z,9.07
2019-05-30T01:13:43.680Z,9.18
2019-05-30T01:16:11.067Z,9.25
2019-05-30T01:18:38.421Z,9.32
2019-05-30T01:21:05.794Z,9.06
2019-05-30T01:23:33.117Z,8.95
2019-05-30T01:26:01.362Z,8.78
2019-05-30T01:28:29.120Z,8.73
2019-05-30T01:31:00.235Z,8.93
2019-05-30T01:33:25.738Z,8.89
2019-05-30T01:35:53.097Z,8.90
2019-05-30T01:38:20.500Z,9.03
2019-05-30T01:40:47.866Z,9.06
2019-05-30T01:43:15.219Z,9.06
2019-05-30T01:45:42.590Z,8.96
2019-05-30T01:48:09.926Z,9.05
2019-05-30T01:50:37.303Z,8.91
2019-05-30T01:53:04.858Z,8.88
2019-05-30T01:55:32.228Z,9.25
2019-05-30T01:58:01.491Z,9.02
2019-05-30T02:00:37.540Z,9.03
2019-05-30T02:03:05.102Z,9.43
2019-05-30T02:05:32.458Z,9.14
2019-05-30T02:08:01.000Z,9.10
2019-05-30T02:10:28.366Z,8.99
2019-05-30T02:12:55.718Z,8.69
2019-05-30T02:15:23.105Z,8.67
2019-05-30T02:17:50.425Z,8.89
2019-05-30T02:20:18.118Z,8.95
2019-05-30T02:22:45.521Z,8.89
2019-05-30T02:25:15.406Z,9.14
2019-05-30T02:27:42.753Z,9.31
2019-05-30T02:30:12.731Z,8.97
2019-05-30T02:32:39.518Z,8.93
2019-05-30T02:35:07.800Z,9.18
2019-05-30T02:37:36.155Z,9.08
2019-05-30T02:40:07.505Z,9.09
2019-05-30T02:42:33.339Z,9.01
2019-05-30T02:45:01.448Z,8.79
2019-05-30T02:47:29.563Z,8.69
2019-05-30T02:49:56.924Z,8.79
2019-05-30T02:52:24.285Z,8.85
2019-05-30T02:54:51.680Z,8.95
2019-05-30T02:57:19.024Z,9.22
2019-05-30T02:59:46.426Z,8.95
2019-05-30T03:02:16.805Z,8.73
2019-05-30T03:04:43.063Z,8.59
2019-05-30T03:07:11.354Z,8.77
2019-05-30T03:09:39.726Z,8.78
2019-05-30T03:12:09.073Z,9.15
2019-05-30T03:14:36.338Z,8.75
2019-05-30T03:17:05.358Z,8.60
2019-05-30T03:19:33.198Z,8.61
2019-05-30T03:22:02.814Z,8.97
2019-05-30T03:24:29.788Z,9.17
2019-05-30T03:26:57.166Z,8.97
2019-05-30T03:29:24.515Z,9.14
2019-05-30T03:31:52.167Z,8.99
2019-05-30T03:34:27.930Z,9.28
2019-05-30T03:36:48.983Z,9.20
2019-05-30T03:39:16.318Z,9.24
2019-05-30T03:41:43.798Z,9.10
2019-05-30T03:44:13.473Z,8.77
2019-05-30T03:46:45.356Z,8.65
2019-05-30T03:49:16.667Z,8.94
2019-05-30T03:51:45.025Z,8.65
2019-05-30T03:54:14.186Z,8.63
2019-05-30T03:56:45.178Z,8.78
2019-05-30T03:59:27.970Z,8.70
2019-05-30T04:02:13.443Z,8.53
2019-05-30T04:04:48.944Z,8.65
2019-05-30T04:07:19.544Z,8.61
2019-05-30T04:09:47.931Z,8.57
2019-05-30T04:12:29.012Z,8.65
2019-05-30T04:15:02.745Z,8.83
2019-05-30T04:17:30.059Z,8.62
2019-05-30T04:19:57.465Z,8.59
2019-05-30T04:22:24.797Z,8.73
2019-05-30T04:24:52.257Z,8.99
2019-05-30T04:27:19.638Z,8.81
2019-05-30T04:29:46.982Z,8.95
2019-05-30T04:32:14.456Z,9.05
2019-05-30T04:34:41.890Z,9.03
2019-05-30T04:37:10.690Z,8.67
2019-05-30T04:39:38.236Z,8.79
2019-05-30T04:42:05.584Z,8.87
2019-05-30T04:44:32.973Z,8.94
2019-05-30T04:47:00.340Z,8.86
2019-05-30T04:49:27.676Z,8.89
2019-05-30T04:51:55.072Z,8.97
2019-05-30T04:54:22.519Z,9.27
2019-05-30T04:56:49.907Z,9.50
2019-05-30T04:59:17.953Z,9.42
2019-05-30T05:01:46.538Z,9.04
2019-05-30T05:04:15.354Z,8.88
2019-05-30T05:06:43.101Z,9.03
2019-05-30T05:09:11.956Z,9.09
2019-05-30T05:11:39.564Z,9.39
2019-05-30T05:14:06.918Z,9.52
2019-05-30T05:16:36.344Z,9.41
2019-05-30T05:19:03.530Z,9.50
2019-05-30T05:21:30.882Z,9.57
2019-05-30T05:23:58.211Z,9.34
2019-05-30T05:26:25.577Z,9.48
2019-05-30T05:28:52.929Z,9.33
2019-05-30T05:31:20.434Z,9.25
2019-05-30T05:33:56.784Z,9.26
2019-05-30T05:36:18.837Z,9.52
2019-05-30T05:38:46.361Z,9.78
2019-05-30T05:41:13.706Z,9.53
2019-05-30T05:43:41.038Z,9.55
2019-05-30T05:46:08.418Z,9.71
2019-05-30T05:48:35.770Z,9.83
2019-05-30T05:51:03.159Z,9.97
2019-05-30T05:53:30.495Z,10.06
2019-05-30T05:55:57.871Z,9.75
2019-05-30T05:58:26.454Z,9.70
2019-05-30T06:00:54.051Z,9.82
2019-05-30T06:03:22.255Z,9.79
2019-05-30T06:05:53.452Z,9.79
2019-05-30T06:08:19.526Z,9.93
2019-05-30T06:10:47.038Z,10.23
2019-05-30T06:13:14.422Z,10.17
2019-05-30T06:15:41.757Z,9.93
2019-05-30T06:18:09.093Z,9.75
2019-05-30T06:20:36.451Z,10.08
2019-05-30T06:23:03.799Z,10.40
2019-05-30T06:25:32.968Z,10.45
2019-05-30T06:28:00.418Z,10.50
2019-05-30T06:30:28.784Z,10.65
2019-05-30T06:32:56.310Z,10.80
2019-05-30T06:35:24.969Z,10.80
2019-05-30T06:37:52.461Z,10.74
2019-05-30T06:40:19.793Z,10.62
2019-05-30T06:42:47.159Z,10.65
2019-05-30T06:45:14.813Z,10.48
2019-05-30T06:47:42.169Z,10.44
2019-05-30T06:50:09.922Z,10.71
2019-05-30T06:52:37.273Z,10.59
2019-05-30T06:55:05.293Z,10.74
2019-05-30T06:57:32.719Z,10.71
2019-05-30T07:00:00.124Z,10.77
2019-05-30T07:02:28.405Z,10.66
2019-05-30T07:04:56.663Z,10.75
2019-05-30T07:07:25.126Z,10.68
2019-05-30T07:09:52.660Z,10.63
2019-05-30T07:12:20.011Z,10.75
2019-05-30T07:14:47.492Z,10.78
2019-05-30T07:17:14.873Z,10.90
2019-05-30T07:19:42.214Z,11.10
2019-05-30T07:22:09.575Z,10.88
2019-05-30T07:24:36.931Z,11.00
2019-05-30T07:27:04.381Z,11.08
2019-05-30T07:29:32.124Z,11.17
2019-05-30T07:31:59.672Z,11.22
2019-05-30T07:34:28.149Z,11.30
2019-05-30T07:36:56.098Z,11.12
2019-05-30T07:39:26.302Z,11.15
2019-05-30T07:42:05.615Z,11.27
2019-05-30T07:44:21.958Z,11.11
2019-05-30T07:46:49.359Z,11.10
2019-05-30T07:49:16.709Z,11.17
2019-05-30T07:51:44.050Z,11.11
2019-05-30T07:54:11.410Z,11.15
2019-05-30T07:56:38.800Z,11.27
2019-05-30T07:59:06.209Z,11.22
2019-05-30T08:01:34.644Z,11.34
2019-05-30T08:04:02.209Z,11.16
2019-05-30T08:06:29.612Z,11.14
2019-05-30T08:08:56.970Z,11.14
2019-05-30T08:11:24.329Z,11.11
2019-05-30T08:13:51.708Z,11.15
2019-05-30T08:16:19.046Z,11.28
2019-05-30T08:18:46.457Z,11.27
2019-05-30T08:21:13.812Z,11.47
2019-05-30T08:23:41.190Z,11.40
2019-05-30T08:26:08.681Z,11.44
2019-05-30T08:28:36.402Z,11.55
2019-05-30T08:31:04.007Z,11.51
2019-05-30T08:33:31.498Z,11.45
2019-05-30T08:35:58.860Z,11.70
2019-05-30T08:38:26.215Z,11.69
2019-05-30T08:40:53.807Z,11.64
2019-05-30T08:43:21.677Z,11.77
2019-05-30T08:45:49.029Z,11.75
2019-05-30T08:48:16.510Z,11.74
2019-05-30T08:50:44.796Z,11.96
2019-05-30T08:53:12.350Z,12.00
2019-05-30T08:55:40.624Z,12.09
2019-05-30T08:58:08.199Z,11.95
2019-05-30T09:00:35.572Z,12.13
2019-05-30T09:03:03.346Z,11.95
2019-05-30T09:05:30.831Z,12.07
2019-05-30T09:07:58.270Z,12.07
2019-05-30T09:10:25.782Z,12.13
2019-05-30T09:12:53.176Z,12.04
2019-05-30T09:15:22.107Z,12.03
2019-05-30T09:17:49.738Z,12.30
2019-05-30T09:20:17.635Z,12.12
2019-05-30T09:22:45.544Z,12.22
2019-05-30T09:25:15.259Z,12.26
2019-05-30T09:27:44.548Z,12.27
2019-05-30T09:30:12.871Z,12.52
2019-05-30T09:32:41.319Z,12.56
2019-05-30T09:35:11.447Z,12.61
2019-05-30T09:37:40.252Z,12.79
2019-05-30T09:40:08.954Z,13.27
2019-05-30T09:42:36.343Z,13.31
2019-05-30T09:45:05.289Z,13.13
2019-05-30T09:47:32.612Z,13.54
2019-05-30T09:50:03.711Z,12.76
2019-05-30T09:52:29.286Z,13.04
2019-05-30T09:54:56.615Z,12.84
2019-05-30T09:57:23.958Z,13.37
2019-05-30T09:59:52.230Z,13.44
2019-05-30T10:02:19.754Z,13.05
2019-05-30T10:04:48.440Z,13.19
2019-05-30T10:07:15.891Z,12.78
2019-05-30T10:09:44.535Z,12.64
2019-05-30T10:12:12.570Z,12.57
2019-05-30T10:14:39.969Z,12.53
2019-05-30T10:17:07.356Z,12.52
2019-05-30T10:19:34.719Z,12.52
2019-05-30T10:22:02.181Z,12.68
2019-05-30T10:24:29.633Z,12.82
2019-05-30T10:26:57.409Z,12.65
2019-05-30T10:29:24.882Z,12.54
2019-05-30T10:31:52.677Z,12.55
2019-05-30T10:34:20.161Z,12.55
2019-05-30T10:36:48.888Z,12.69
2019-05-30T10:39:16.781Z,12.51
2019-05-30T10:41:44.603Z,12.73
2019-05-30T10:44:13.418Z,12.67
2019-05-30T10:46:40.850Z,12.81
2019-05-30T10:49:08.239Z,12.60
2019-05-30T10:51:35.603Z,12.63
2019-05-30T10:54:03.222Z,12.56
2019-05-30T10:56:30.590Z,12.61
2019-05-30T10:58:57.922Z,12.60
2019-05-30T11:01:25.339Z,12.48
2019-05-30T11:03:52.731Z,12.64
2019-05-30T11:06:27.336Z,12.80
2019-05-30T11:08:56.695Z,12.57
2019-05-30T11:11:24.378Z,12.73
2019-05-30T11:13:53.181Z,12.62
2019-05-30T11:16:20.829Z,12.50
2019-05-30T11:18:49.431Z,12.62
2019-05-30T11:21:17.479Z,12.62
2019-05-30T11:23:44.878Z,12.50
2019-05-30T11:26:12.291Z,12.39
2019-05-30T11:28:39.683Z,12.41
2019-05-30T11:31:07.088Z,12.34
2019-05-30T11:33:34.478Z,12.44
2019-05-30T11:36:01.803Z,12.50
2019-05-30T11:38:29.153Z,12.48
2019-05-30T11:40:57.542Z,12.54
2019-05-30T11:43:25.104Z,12.58
2019-05-30T11:45:53.550Z,12.49
2019-05-30T11:48:21.098Z,12.60
2019-05-30T11:50:50.319Z,12.48
2019-05-30T11:53:17.793Z,12.43
2019-05-30T11:55:45.150Z,12.49
2019-05-30T11:58:12.522Z,12.68
2019-05-30T12:00:40.019Z,12.54
2019-05-30T12:03:07.432Z,12.66
2019-05-30T12:05:34.752Z,12.59
2019-05-30T12:08:02.169Z,12.68
2019-05-30T12:10:30.433Z,12.80
2019-05-30T12:12:57.790Z,12.74
2019-05-30T12:15:25.478Z,12.74
2019-05-30T12:17:53.234Z,12.74
2019-05-30T12:20:20.802Z,12.96
2019-05-30T12:22:48.213Z,13.14
2019-05-30T12:25:15.732Z,13.25
2019-05-30T12:27:43.109Z,13.27
2019-05-30T12:30:11.200Z,13.44
2019-05-30T12:32:38.534Z,13.52
2019-05-30T12:35:06.469Z,13.63
2019-05-30T12:37:33.782Z,13.74
2019-05-30T12:40:01.098Z,13.42
2019-05-30T12:42:28.445Z,13.59
2019-05-30T12:44:56.957Z,13.92
2019-05-30T12:47:24.392Z,14.20
2019-05-30T12:49:53.203Z,14.09
2019-05-30T12:52:20.750Z,13.81
2019-05-30T12:54:48.102Z,13.86
2019-05-30T12:57:15.509Z,13.80
2019-05-30T12:59:44.866Z,13.87
2019-05-30T13:02:12.252Z,13.75
2019-05-30T13:04:39.651Z,13.75
2019-05-30T13:07:07.636Z,13.59
2019-05-30T13:09:35.280Z,13.62
2019-05-30T13:12:02.690Z,13.75
2019-05-30T13:14:30.051Z,13.65
2019-05-30T13:16:57.716Z,13.66
2019-05-30T13:19:25.268Z,13.42
2019-05-30T13:21:53.833Z,13.52
2019-05-30T13:24:21.886Z,13.39
2019-05-30T13:26:49.252Z,13.38
2019-05-30T13:29:16.666Z,13.39
2019-05-30T13:31:44.041Z,13.36
2019-05-30T13:34:11.443Z,13.17
2019-05-30T13:36:38.871Z,13.48
2019-05-30T13:39:07.535Z,13.39
2019-05-30T13:41:35.573Z,13.44
2019-05-30T13:44:06.383Z,13.47
2019-05-30T13:46:32.403Z,13.51
2019-05-30T13:49:00.780Z,13.56
2019-05-30T13:51:28.680Z,13.64
2019-05-30T13:53:56.033Z,13.72
2019-05-30T13:56:23.464Z,13.73
2019-05-30T13:58:50.838Z,13.72
2019-05-30T14:01:18.194Z,13.61
2019-05-30T14:03:45.655Z,13.77
2019-05-30T14:06:13.100Z,13.98
2019-05-30T14:08:41.912Z,13.78
2019-05-30T14:11:10.740Z,13.93
2019-05-30T14:13:38.580Z,13.80
2019-05-30T14:16:06.865Z,13.92
2019-05-30T14:18:34.388Z,14.03
2019-05-30T14:21:02.278Z,14.02
2019-05-30T14:23:31.055Z,14.22
2019-05-30T14:25:58.437Z,14.25
2019-05-30T14:28:25.832Z,14.32
2019-05-30T14:30:53.238Z,14.41
2019-05-30T14:33:20.630Z,14.39
2019-05-30T14:35:48.023Z,14.49
2019-05-30T14:38:15.437Z,14.41
2019-05-30T14:40:42.831Z,14.51
2019-05-30T14:43:11.536Z,14.42
2019-05-30T14:45:39.198Z,14.37
2019-05-30T14:48:06.628Z,14.46
2019-05-30T14:50:33.991Z,14.58
2019-05-30T14:53:01.432Z,14.68
2019-05-30T14:55:28.823Z,14.78
2019-05-30T14:57:58.306Z,14.71
2019-05-30T15:00:25.513Z,14.85
2019-05-30T15:02:52.923Z,15.15
2019-05-30T15:05:20.360Z,15.01
2019-05-30T15:07:47.784Z,15.09
2019-05-30T15:10:16.833Z,14.81
2019-05-30T15:12:44.883Z,14.69
2019-05-30T15:15:16.601Z,14.73
2019-05-30T15:17:43.509Z,14.91
2019-05-30T15:20:13.891Z,14.72
2019-05-30T15:22:42.031Z,14.60
2019-05-30T15:25:10.020Z,14.59
2019-05-30T15:27:37.535Z,14.51
2019-05-30T15:30:06.340Z,14.47
2019-05-30T15:32:33.891Z,14.51
2019-05-30T15:35:01.255Z,14.50
2019-05-30T15:37:28.658Z,14.34
2019-05-30T15:39:56.058Z,14.51
2019-05-30T15:42:23.483Z,14.55
2019-05-30T15:44:51.118Z,14.47
2019-05-30T15:47:18.545Z,14.45
2019-05-30T15:49:46.023Z,14.43
2019-05-30T15:52:13.454Z,14.54
2019-05-30T15:54:40.854Z,14.51
2019-05-30T15:57:09.186Z,14.73
2019-05-30T15:59:36.693Z,14.57
2019-05-30T16:02:04.376Z,14.33
2019-05-30T16:04:31.843Z,14.61
2019-05-30T16:06:59.239Z,14.71
2019-05-30T16:09:26.772Z,14.48
2019-05-30T16:11:54.133Z,14.44
2019-05-30T16:14:21.667Z,14.51
2019-05-30T16:16:49.037Z,14.46
2019-05-30T16:19:21.968Z,14.54
2019-05-30T16:21:45.750Z,14.50
2019-05-30T16:24:14.284Z,14.50
2019-05-30T16:26:42.231Z,14.32
2019-05-30T16:29:09.594Z,14.50
2019-05-30T16:31:37.003Z,14.30
2019-05-30T16:34:04.371Z,14.48
2019-05-30T16:36:32.182Z,14.36
2019-05-30T16:38:59.599Z,14.36
2019-05-30T16:41:27.013Z,14.45
2019-05-30T16:43:54.380Z,14.36
2019-05-30T16:46:22.690Z,14.05
2019-05-30T16:48:50.220Z,14.33
2019-05-30T16:51:18.739Z,14.42
2019-05-30T16:53:46.294Z,14.45
2019-05-30T16:56:13.689Z,14.23
2019-05-30T16:58:41.094Z,14.12
2019-05-30T17:01:08.495Z,14.32
2019-05-30T17:03:35.852Z,14.10
2019-05-30T17:06:03.414Z,14.08
2019-05-30T17:08:30.812Z,13.87
2019-05-30T17:11:00.936Z,13.76
2019-05-30T17:13:31.222Z,14.10
2019-05-30T17:15:57.612Z,14.32
2019-05-30T17:18:26.198Z,14.53
2019-05-30T17:20:54.834Z,14.53
2019-05-30T17:23:22.749Z,15.50
2019-05-30T17:25:50.369Z,14.76
2019-05-30T17:28:18.120Z,14.89
2019-05-30T17:30:45.592Z,14.65
2019-05-30T17:33:13.386Z,14.98
2019-05-30T17:35:40.780Z,14.83
2019-05-30T17:38:08.199Z,14.72
2019-05-30T17:40:44.665Z,14.56
2019-05-30T17:43:06.217Z,14.58
2019-05-30T17:45:33.597Z,14.18
2019-05-30T17:48:15.657Z,14.28
2019-05-30T17:50:30.400Z,14.22
2019-05-30T17:52:57.757Z,13.83
2019-05-30T17:55:26.020Z,13.94
2019-05-30T17:57:53.562Z,13.70
2019-05-30T18:00:24.307Z,13.65
2019-05-30T18:02:51.912Z,13.58
2019-05-30T18:05:20.442Z,13.36
2019-05-30T18:07:48.667Z,13.33
2019-05-30T18:10:16.301Z,13.27
2019-05-30T18:12:43.853Z,13.10
2019-05-30T18:15:15.602Z,12.97
2019-05-30T18:17:44.072Z,12.72
2019-05-30T18:20:12.699Z,12.70
2019-05-30T18:22:43.009Z,12.64
2019-05-30T18:25:11.081Z,12.81
2019-05-30T18:27:39.662Z,12.74
2019-05-30T18:30:07.729Z,12.77
2019-05-30T18:32:35.309Z,12.28
2019-05-30T18:35:03.589Z,11.97
2019-05-30T18:37:39.544Z,11.89
2019-05-30T18:40:09.569Z,11.98
2019-05-30T18:42:37.624Z,12.21
2019-05-30T18:45:06.605Z,11.92
2019-05-30T18:47:34.303Z,11.81
2019-05-30T18:50:02.794Z,11.75
2019-05-30T18:52:30.678Z,12.04
2019-05-30T18:55:00.085Z,12.09
2019-05-30T18:57:28.670Z,11.87
2019-05-30T19:00:01.102Z,11.70
2019-05-30T19:02:29.279Z,11.77
2019-05-30T19:04:58.126Z,11.91
2019-05-30T19:07:26.719Z,11.95
2019-05-30T19:09:54.473Z,12.07
2019-05-30T19:12:24.309Z,11.83
2019-05-30T19:14:52.413Z,11.73
2019-05-30T19:17:21.148Z,11.23
2019-05-30T19:19:51.293Z,11.20
2019-05-30T19:22:20.864Z,11.17
2019-05-30T19:24:49.459Z,11.22
2019-05-30T19:27:18.251Z,11.35
2019-05-30T19:32:38.588Z,11.41
2019-05-30T19:35:06.649Z,11.42
2019-05-30T19:37:35.358Z,11.56
2019-05-30T19:40:05.789Z,11.15
2019-05-30T19:42:35.685Z,11.01
2019-05-30T19:45:03.529Z,11.29
2019-05-30T19:47:32.351Z,10.98
2019-05-30T19:50:01.683Z,11.06
2019-05-30T19:52:30.606Z,10.85
2019-05-30T19:54:58.535Z,10.76
2019-05-30T19:57:27.310Z,10.74
2019-05-30T19:59:57.425Z,10.55
2019-05-30T20:02:25.295Z,10.83
2019-05-30T20:04:53.918Z,10.74
2019-05-30T20:07:21.840Z,10.43
2019-05-30T20:10:00.793Z,10.45
2019-05-30T20:12:21.965Z,10.64
2019-05-30T20:14:49.827Z,10.35
2019-05-30T20:17:17.709Z,10.45
2019-05-30T20:19:45.627Z,10.55
2019-05-30T20:22:14.182Z,10.28
2019-05-30T20:24:42.668Z,10.36
2019-05-30T20:27:10.200Z,10.30
2019-05-30T20:29:37.622Z,10.88
2019-05-30T20:32:07.282Z,10.41
2019-05-30T20:34:35.147Z,10.45
2019-05-30T20:37:02.534Z,10.58
2019-05-30T20:39:29.922Z,10.18
2019-05-30T20:41:57.369Z,10.11
2019-05-30T20:44:24.752Z,10.00
2019-05-30T20:46:52.112Z,9.98
2019-05-30T20:49:23.022Z,10.65
2019-05-30T20:51:50.891Z,10.31
2019-05-30T20:54:18.305Z,9.90
2019-05-30T20:56:50.076Z,10.04
2019-05-30T20:59:15.574Z,9.80
2019-05-30T21:01:43.793Z,9.81
2019-05-30T21:04:11.296Z,9.72
2019-05-30T21:06:41.518Z,9.64
2019-05-30T21:09:27.490Z,9.71
2019-05-30T21:11:40.291Z,9.68
2019-05-30T21:14:07.759Z,9.61
2019-05-30T21:16:35.679Z,9.70
2019-05-30T21:19:03.395Z,9.69
2019-05-30T21:21:30.823Z,9.56
2019-05-30T21:23:58.188Z,9.74
2019-05-30T21:26:25.532Z,9.58
2019-05-30T21:28:52.927Z,10.16
2019-05-30T21:31:20.278Z,9.59
2019-05-30T21:33:48.343Z,9.63
2019-05-30T21:36:16.258Z,9.65
2019-05-30T21:38:43.956Z,9.81
2019-05-30T21:41:11.451Z,9.61
2019-05-30T21:43:38.814Z,9.54
2019-05-30T21:46:06.291Z,9.90
2019-05-30T21:48:33.677Z,9.97
2019-05-30T21:51:01.056Z,10.19
2019-05-30T21:53:28.405Z,10.21
2019-05-30T21:55:55.791Z,9.50
2019-05-30T21:58:23.143Z,10.16
2019-05-30T22:01:29.243Z,10.16
2019-05-30T22:03:56.579Z,9.78
2019-05-30T22:06:23.940Z,9.28
2019-05-30T22:08:51.578Z,9.28
2019-05-30T22:11:19.657Z,9.57
2019-05-30T22:13:47.697Z,9.43
2019-05-30T22:16:15.317Z,9.68
2019-05-30T22:18:44.088Z,9.99
2019-05-30T22:21:11.683Z,9.46
2019-05-30T22:23:39.056Z,9.48
2019-05-30T22:26:06.447Z,9.11
2019-05-30T22:28:33.817Z,9.19
2019-05-30T22:31:01.168Z,9.66
2019-05-30T22:33:28.561Z,9.39
2019-05-30T22:35:55.950Z,9.78
2019-05-30T22:38:23.289Z,10.17
2019-05-30T22:40:51.977Z,9.62
2019-05-30T22:43:25.241Z,9.62
2019-05-30T22:45:50.272Z,9.25
2019-05-30T22:48:17.910Z,8.96
2019-05-30T22:50:45.287Z,9.13
2019-05-30T22:53:12.632Z,9.04
2019-05-30T22:55:39.997Z,9.20
2019-05-30T22:58:07.350Z,9.08
2019-05-30T23:00:34.738Z,9.36
2019-05-30T23:03:02.137Z,9.25
2019-05-30T23:05:29.489Z,9.56
2019-05-30T23:07:56.839Z,9.56
2019-05-30T23:10:24.229Z,9.29
2019-05-30T23:12:51.943Z,9.31
2019-05-30T23:15:19.669Z,9.01
2019-05-30T23:17:48.239Z,9.48
2019-05-30T23:20:15.833Z,9.31
2019-05-30T23:22:43.193Z,9.48
2019-05-30T23:25:10.676Z,9.58
2019-05-30T23:27:38.038Z,9.51
2019-05-30T23:30:06.284Z,9.34
2019-05-30T23:32:33.716Z,9.16
2019-05-30T23:35:01.097Z,8.70
2019-05-30T23:37:28.450Z,8.81
2019-05-30T23:39:56.877Z,9.41
2019-05-30T23:42:24.352Z,8.74
2019-05-30T23:44:51.720Z,9.40
2019-05-30T23:47:19.170Z,9.26
2019-05-30T23:49:46.657Z,8.79
2019-05-30T23:52:13.970Z,9.01
2019-05-30T23:54:41.391Z,9.17
2019-05-30T23:57:08.759Z,9.16
2019-05-30T23:59:36.109Z,8.99
